Terminal Aerodrome Forecast
Issued by NWS Cleveland, OH

Home | Current Version | Previous Version | Text Only | Print | Product List | Glossary On
Versions: 1 2 3 4 5 6 7 8 9 10 11 12 13 14 15 16 17 18 19 20 21 22 23 24 25 26 27 28 29 30 31
000
FTUS41 KCLE 051300 AAB
TAFCLE
TAF AMD
KCLE 051344Z 0514/0618 VRB02KT 5SM BR SCT025 OVC045
      TEMPO 0514/0516 6SM BR BKN025
     FM051600 03006KT 6SM -SHRA BR SCT025 OVC045
      TEMPO 0516/0518 4SM -SHRA SCT025 BKN045
     FM051800 03008KT P6SM VCSH BKN035 OVC080
     FM060400 06008KT 5SM BR BKN012 OVC080
     FM060700 07004KT 3SM BR OVC008=

USA.gov is the U.S. government's official web portal to all federal, state and local government web resources and services.